Time;durP1;ratioP1;P1;durP2;ratioP2;P2;SDS_P1;SDS_P2;PMS_P1;PMS_P2;Temp;Humidity;BMP_temperature;BMP_pressure;BME280_temperature;BME280_humidity;BME280_pressure;Samples;Min_cycle;Max_cycle;Signal;HPM_P1;HPM_P2
2021/04/18 00:01:35;;;;;;;11.37;3.20;;;7.90;51.90;;;;;;4954714;29;20444;-75
2021/04/18 00:04:06;;;;;;;6.60;2.70;;;7.80;51.80;;;;;;4938299;29;20417;-76
2021/04/18 00:06:50;;;;;;;7.10;3.47;;;7.80;51.60;;;;;;4938551;29;20432;-75
2021/04/18 00:09:17;;;;;;;10.43;2.73;;;7.80;51.60;;;;;;4956356;28;20503;-75
2021/04/18 00:11:42;;;;;;;5.50;2.83;;;7.80;51.60;;;;;;4946681;29;20520;-76
2021/04/18 00:14:09;;;;;;;4.40;2.60;;;7.70;51.50;;;;;;4940570;29;20174;-75
2021/04/18 00:16:36;;;;;;;5.53;2.70;;;7.70;51.60;;;;;;4942372;28;21000;-76
2021/04/18 00:19:03;;;;;;;5.57;2.47;;;7.80;51.80;;;;;;4945348;29;20495;-76
2021/04/18 00:21:29;;;;;;;8.03;3.60;;;7.70;51.90;;;;;;4962240;28;20432;-75
2021/04/18 00:23:55;;;;;;;5.37;3.10;;;7.80;52.00;;;;;;4949143;28;20509;-75
2021/04/18 00:26:26;;;;;;;7.23;4.73;;;7.80;52.20;;;;;;4961516;28;20161;-76
2021/04/18 00:28:52;;;;;;;6.47;4.20;;;7.70;52.20;;;;;;4937636;29;20647;-76
2021/04/18 00:31:19;;;;;;;10.03;4.77;;;7.70;52.50;;;;;;4944734;29;20472;-76
2021/04/18 00:33:47;;;;;;;5.83;3.43;;;7.70;52.70;;;;;;4935261;29;20424;-76
2021/04/18 00:36:29;;;;;;;5.97;3.10;;;7.70;52.80;;;;;;4931156;29;20416;-75
2021/04/18 00:38:58;;;;;;;7.30;3.43;;;7.70;52.90;;;;;;4947146;29;20444;-76
2021/04/18 00:41:26;;;;;;;7.37;3.47;;;7.60;53.00;;;;;;4925440;29;20787;-76
2021/04/18 00:43:52;;;;;;;6.03;2.87;;;7.60;53.20;;;;;;4968224;29;20459;-76
2021/04/18 00:46:18;;;;;;;4.30;2.70;;;7.60;53.40;;;;;;4950775;29;20192;-75
2021/04/18 00:48:44;;;;;;;6.83;2.83;;;7.60;53.40;;;;;;4967417;29;20170;-76
2021/04/18 00:51:11;;;;;;;5.70;2.63;;;7.70;53.60;;;;;;4938854;29;20288;-74
2021/04/18 00:53:38;;;;;;;7.23;3.13;;;7.70;53.60;;;;;;4928721;29;20417;-76
2021/04/18 00:56:12;;;;;;;9.10;3.57;;;7.70;53.60;;;;;;4946911;29;20413;-75
2021/04/18 00:58:44;;;;;;;8.47;3.70;;;7.70;53.60;;;;;;4948273;29;20419;-75
2021/04/18 01:01:18;;;;;;;9.23;2.97;;;7.70;53.90;;;;;;4944491;29;20482;-75
2021/04/18 01:03:44;;;;;;;10.33;3.80;;;7.60;53.90;;;;;;4960256;28;20527;-76
2021/04/18 01:06:16;;;;;;;8.37;2.80;;;7.60;54.20;;;;;;4944456;29;20466;-75
2021/04/18 01:08:47;;;;;;;12.93;3.50;;;7.60;55.00;;;;;;4976267;28;20431;-75
2021/04/18 01:11:15;;;;;;;8.30;3.43;;;7.60;54.60;;;;;;4955435;28;20456;-75
2021/04/18 01:13:50;;;;;;;8.43;3.07;;;7.60;54.70;;;;;;4917725;29;20188;-75
2021/04/18 01:16:22;;;;;;;9.50;3.37;;;7.60;54.90;;;;;;4947800;29;20921;-75
2021/04/18 01:18:48;;;;;;;9.13;3.60;;;7.60;54.90;;;;;;4946389;29;20420;-75
2021/04/18 01:21:14;;;;;;;5.83;3.20;;;7.60;54.90;;;;;;4948838;29;20465;-76
2021/04/18 01:23:53;;;;;;;7.60;3.83;;;7.60;55.00;;;;;;4943817;29;20906;-77
2021/04/18 01:26:37;;;;;;;5.90;3.80;;;7.60;55.10;;;;;;4941557;29;20420;-75
2021/04/18 01:29:05;;;;;;;6.40;3.27;;;7.60;55.10;;;;;;4938784;29;21003;-76
2021/04/18 01:31:31;;;;;;;9.57;3.50;;;7.60;55.10;;;;;;4944786;29;20853;-75
2021/04/18 01:33:56;;;;;;;11.87;2.60;;;7.60;55.20;;;;;;4940384;29;20976;-75
2021/04/18 01:36:23;;;;;;;10.63;2.90;;;7.60;55.30;;;;;;4950260;29;20449;-76
2021/04/18 01:38:49;;;;;;;6.97;3.03;;;7.60;55.40;;;;;;4945984;29;20926;-76
2021/04/18 01:41:15;;;;;;;7.43;3.63;;;7.60;55.40;;;;;;4957349;29;20794;-77
2021/04/18 01:43:41;;;;;;;8.03;3.37;;;7.60;55.40;;;;;;4957797;29;20413;-76
2021/04/18 01:46:14;;;;;;;12.83;3.13;;;7.60;55.40;;;;;;4938964;29;20176;-76
2021/04/18 01:48:47;;;;;;;6.03;3.40;;;7.60;55.30;;;;;;4924803;29;20505;-76
2021/04/18 01:51:26;;;;;;;7.33;3.10;;;7.70;55.40;;;;;;4957044;29;20468;-76
2021/04/18 01:53:55;;;;;;;5.37;2.83;;;7.70;55.50;;;;;;4957785;29;20416;-76
2021/04/18 01:56:30;;;;;;;8.00;3.03;;;7.70;55.50;;;;;;4941125;29;21000;-76
2021/04/18 01:59:10;;;;;;;6.77;3.50;;;7.70;55.50;;;;;;4949671;29;20427;-77
2021/04/18 02:01:51;;;;;;;7.43;3.37;;;7.70;55.60;;;;;;4956457;29;20452;-77
2021/04/18 02:04:28;;;;;;;5.13;3.20;;;7.70;55.80;;;;;;4947027;29;20418;-75
2021/04/18 02:07:02;;;;;;;7.80;4.07;;;7.70;56.30;;;;;;4962404;29;20425;-77
2021/04/18 02:09:31;;;;;;;5.73;3.20;;;7.70;55.90;;;;;;4947692;29;20481;-75
2021/04/18 02:12:05;;;;;;;4.60;2.83;;;7.70;56.00;;;;;;4930377;29;20417;-74
2021/04/18 02:14:34;;;;;;;6.90;3.53;;;7.70;56.10;;;;;;4948165;28;20424;-74
2021/04/18 02:17:11;;;;;;;5.83;3.30;;;7.70;56.30;;;;;;4941305;29;20544;-75
2021/04/18 02:19:40;;;;;;;14.13;3.73;;;7.70;56.30;;;;;;4923447;29;20421;-75
2021/04/18 02:22:13;;;;;;;8.13;3.97;;;7.70;56.30;;;;;;4924354;29;20429;-76
2021/04/18 02:24:45;;;;;;;5.83;3.33;;;7.70;56.40;;;;;;4937710;29;20422;-75
2021/04/18 02:27:18;;;;;;;4.67;3.00;;;7.70;56.40;;;;;;4920973;29;20442;-76
2021/04/18 02:29:55;;;;;;;10.67;4.70;;;7.70;56.30;;;;;;4952450;29;21056;-75
2021/04/18 02:32:23;;;;;;;6.60;3.20;;;7.70;56.30;;;;;;4922026;29;20453;-76
2021/04/18 02:35:01;;;;;;;6.90;3.97;;;7.70;56.30;;;;;;4949628;29;20528;-76
2021/04/18 02:37:26;;;;;;;6.43;3.57;;;7.70;56.60;;;;;;4939375;29;20397;-76
2021/04/18 02:39:53;;;;;;;15.10;4.77;;;7.70;56.70;;;;;;4938669;29;20519;-75
2021/04/18 02:42:18;;;;;;;7.63;3.70;;;7.70;56.80;;;;;;4955615;29;20224;-75
2021/04/18 02:44:45;;;;;;;8.33;4.27;;;7.60;56.80;;;;;;4939152;29;20500;-76
2021/04/18 02:47:11;;;;;;;8.23;4.20;;;7.60;56.80;;;;;;4956030;29;20921;-75
2021/04/18 02:49:47;;;;;;;14.10;4.47;;;7.60;56.90;;;;;;4956176;29;20977;-76
2021/04/18 02:52:22;;;;;;;7.70;3.90;;;7.60;57.00;;;;;;4938666;29;21060;-75
2021/04/18 02:54:48;;;;;;;7.97;4.40;;;7.60;57.00;;;;;;4938628;29;20412;-77
2021/04/18 02:57:19;;;;;;;11.33;4.10;;;7.60;57.10;;;;;;4938447;29;20405;-76
2021/04/18 02:59:53;;;;;;;9.20;3.60;;;7.60;57.20;;;;;;4956238;29;20428;-75
2021/04/18 03:02:22;;;;;;;4.70;3.23;;;7.60;57.30;;;;;;4922119;29;20455;-76
2021/04/18 03:04:50;;;;;;;9.60;3.50;;;7.70;57.50;;;;;;4937940;29;20416;-76
2021/04/18 03:07:19;;;;;;;7.07;4.47;;;7.70;57.60;;;;;;4937536;29;20417;-76
2021/04/18 03:09:45;;;;;;;7.80;3.70;;;7.70;57.70;;;;;;4921006;29;20496;-76
2021/04/18 03:12:17;;;;;;;8.13;4.70;;;7.60;57.70;;;;;;4956014;29;20428;-75
2021/04/18 03:14:53;;;;;;;6.87;4.00;;;7.60;57.90;;;;;;4935363;29;20189;-75
2021/04/18 03:17:25;;;;;;;12.50;3.60;;;7.60;58.10;;;;;;4921986;29;20441;-76
2021/04/18 03:20:08;;;;;;;10.20;3.37;;;7.60;58.30;;;;;;4919407;29;20454;-75
2021/04/18 03:22:37;;;;;;;8.20;3.50;;;7.60;58.50;;;;;;4920225;29;20437;-75
2021/04/18 03:25:09;;;;;;;8.30;4.43;;;7.60;58.30;;;;;;4929915;29;20541;-75
2021/04/18 03:27:41;;;;;;;8.23;5.00;;;7.60;58.40;;;;;;4922001;28;20429;-75
2021/04/18 03:30:37;;;;;;;6.73;4.30;;;7.60;58.30;;;;;;4923132;29;20575;-75
2021/04/18 03:33:04;;;;;;;5.13;2.93;;;7.60;58.40;;;;;;4930153;29;20418;-76
2021/04/18 03:35:31;;;;;;;6.27;3.97;;;7.60;58.40;;;;;;4922312;29;20420;-76
2021/04/18 03:37:57;;;;;;;8.80;5.17;;;7.60;58.50;;;;;;4937616;29;20456;-76
2021/04/18 03:40:26;;;;;;;7.23;4.50;;;7.60;58.50;;;;;;4922714;29;20448;-75
2021/04/18 03:42:53;;;;;;;8.27;4.47;;;7.60;58.50;;;;;;4932168;29;20864;-74
2021/04/18 03:45:22;;;;;;;11.70;4.73;;;7.50;58.60;;;;;;4966587;28;20412;-76
2021/04/18 03:47:53;;;;;;;9.90;4.50;;;7.50;58.80;;;;;;4939512;29;20413;-74
2021/04/18 03:50:23;;;;;;;8.87;5.33;;;7.50;58.90;;;;;;4950281;29;20488;-75
2021/04/18 03:53:00;;;;;;;9.27;4.90;;;7.50;58.90;;;;;;4938524;29;20471;-75
2021/04/18 03:55:34;;;;;;;13.73;5.93;;;7.40;59.00;;;;;;4937831;29;20421;-76
2021/04/18 03:58:01;;;;;;;12.40;5.80;;;7.40;59.00;;;;;;4970932;28;20412;-75
2021/04/18 04:00:27;;;;;;;10.83;5.87;;;7.40;59.10;;;;;;4946098;29;20489;-76
2021/04/18 04:03:04;;;;;;;12.30;6.10;;;7.40;59.10;;;;;;4942061;29;20431;-75
2021/04/18 04:05:39;;;;;;;11.13;5.50;;;7.40;59.00;;;;;;4956688;29;20424;-76
2021/04/18 04:08:08;;;;;;;11.43;6.43;;;7.40;59.20;;;;;;4943836;29;20409;-76
2021/04/18 04:10:37;;;;;;;17.10;6.30;;;7.40;59.30;;;;;;4937880;29;20826;-76
2021/04/18 04:13:04;;;;;;;10.60;5.37;;;7.40;59.20;;;;;;4947207;29;20239;-75
2021/04/18 04:15:35;;;;;;;11.77;7.00;;;7.40;59.30;;;;;;4950835;29;20797;-77
2021/04/18 04:18:04;;;;;;;14.07;6.77;;;7.40;59.20;;;;;;4919200;29;20401;-76
2021/04/18 04:20:42;;;;;;;11.17;6.40;;;7.30;59.20;;;;;;4919154;29;20434;-76
2021/04/18 04:23:37;;;;;;;11.23;5.30;;;7.30;59.30;;;;;;4895072;29;20560;-76
2021/04/18 04:26:04;;;;;;;18.73;8.10;;;7.20;59.40;;;;;;4895675;29;20477;-75
2021/04/18 04:28:36;;;;;;;13.37;6.30;;;7.20;59.50;;;;;;4943353;29;20182;-75
2021/04/18 04:31:12;;;;;;;10.37;5.63;;;7.10;59.60;;;;;;4956268;29;20543;-76
2021/04/18 04:33:38;;;;;;;11.53;6.47;;;7.20;59.70;;;;;;4943104;29;20473;-75
2021/04/18 04:36:09;;;;;;;14.00;7.80;;;7.20;59.60;;;;;;4903296;29;20420;-75
2021/04/18 04:38:36;;;;;;;12.53;5.80;;;7.10;59.50;;;;;;4936859;29;20477;-75
2021/04/18 04:41:03;;;;;;;10.10;5.87;;;7.10;59.70;;;;;;4902105;29;20437;-75
2021/04/18 04:43:34;;;;;;;9.93;5.43;;;7.10;59.70;;;;;;4918972;29;20436;-74
2021/04/18 04:46:06;;;;;;;11.57;5.10;;;7.00;59.80;;;;;;4905013;29;20413;-76
2021/04/18 04:48:41;;;;;;;9.00;5.20;;;7.10;59.90;;;;;;4959652;28;20524;-75
2021/04/18 04:51:12;;;;;;;10.60;5.20;;;7.00;59.80;;;;;;4938754;29;20287;-75
2021/04/18 04:53:38;;;;;;;13.53;5.27;;;7.00;59.90;;;;;;4942505;29;20464;-75
2021/04/18 04:56:09;;;;;;;17.57;5.33;;;7.00;59.90;;;;;;4948484;29;20233;-75
2021/04/18 04:58:35;;;;;;;8.93;5.47;;;7.00;59.90;;;;;;4953550;28;20162;-76
2021/04/18 05:01:09;;;;;;;7.43;4.40;;;7.00;59.90;;;;;;4955061;29;20440;-76
2021/04/18 05:03:42;;;;;;;13.63;5.23;;;7.00;60.30;;;;;;4951123;29;20227;-76
2021/04/18 05:06:14;;;;;;;12.03;5.20;;;6.90;60.60;;;;;;4925315;29;20417;-75
2021/04/18 05:08:40;;;;;;;16.90;5.50;;;6.90;60.40;;;;;;4940912;29;20445;-76
2021/04/18 05:11:18;;;;;;;9.77;4.90;;;6.90;60.50;;;;;;4941644;29;20512;-76
2021/04/18 05:13:49;;;;;;;9.17;5.07;;;6.90;60.50;;;;;;4941956;29;20930;-76
2021/04/18 05:16:15;;;;;;;7.57;4.30;;;6.90;60.60;;;;;;4921478;29;20437;-75
2021/04/18 05:18:49;;;;;;;11.63;5.30;;;6.90;60.90;;;;;;4954801;29;20417;-76
2021/04/18 05:21:18;;;;;;;10.90;6.20;;;6.80;61.10;;;;;;4940759;29;20207;-76
2021/04/18 05:23:52;;;;;;;11.23;5.90;;;6.80;61.50;;;;;;4926330;29;20423;-76
2021/04/18 05:26:17;;;;;;;10.10;4.93;;;6.80;61.90;;;;;;4938093;29;20448;-76
2021/04/18 05:28:46;;;;;;;7.17;5.03;;;6.80;62.10;;;;;;4947756;29;20548;-75
2021/04/18 05:31:14;;;;;;;9.10;5.00;;;6.80;62.40;;;;;;4956117;28;20239;-76
2021/04/18 05:33:43;;;;;;;9.47;5.00;;;6.90;62.40;;;;;;4938246;29;20807;-75
2021/04/18 05:36:15;;;;;;;11.10;5.60;;;6.90;61.90;;;;;;4957562;29;20785;-76
2021/04/18 05:38:49;;;;;;;11.13;6.47;;;6.80;62.00;;;;;;4939676;29;20416;-76
2021/04/18 05:41:18;;;;;;;14.63;5.50;;;6.80;62.10;;;;;;4957270;29;20459;-76
2021/04/18 05:43:47;;;;;;;11.23;6.17;;;6.80;62.20;;;;;;4942640;29;20509;-76
2021/04/18 05:46:13;;;;;;;13.20;5.77;;;6.80;62.10;;;;;;4920958;29;20504;-75
2021/04/18 05:48:39;;;;;;;11.07;6.20;;;6.80;62.20;;;;;;4920372;29;20433;-77
2021/04/18 05:51:11;;;;;;;10.27;6.30;;;6.80;62.10;;;;;;4921030;29;20738;-75
2021/04/18 05:53:42;;;;;;;7.77;4.43;;;6.80;62.30;;;;;;4951025;29;20420;-76
2021/04/18 05:56:08;;;;;;;7.93;4.80;;;6.80;62.20;;;;;;4939543;29;20169;-76
2021/04/18 05:58:39;;;;;;;11.83;4.50;;;6.80;62.40;;;;;;4956642;29;20463;-76
2021/04/18 06:01:08;;;;;;;8.80;4.93;;;6.80;62.60;;;;;;4953332;28;20220;-76
2021/04/18 06:03:37;;;;;;;9.93;6.03;;;6.80;62.80;;;;;;4938238;29;20425;-76
2021/04/18 06:06:06;;;;;;;10.17;5.70;;;6.70;62.80;;;;;;4956442;29;20463;-76
2021/04/18 06:08:37;;;;;;;9.57;6.00;;;6.70;63.10;;;;;;4939043;29;20408;-76
2021/04/18 06:11:03;;;;;;;7.37;4.90;;;6.80;63.50;;;;;;4938429;29;20464;-76
2021/04/18 06:13:28;;;;;;;11.23;6.00;;;6.90;63.60;;;;;;4957416;29;20432;-76
2021/04/18 06:15:57;;;;;;;20.87;6.43;;;6.90;62.90;;;;;;4957580;28;20669;-76
2021/04/18 06:18:22;;;;;;;11.30;6.93;;;6.90;63.00;;;;;;4940455;29;20173;-75
2021/04/18 06:20:48;;;;;;;8.60;5.93;;;6.90;63.10;;;;;;4959828;29;20913;-76
2021/04/18 06:23:14;;;;;;;13.57;6.00;;;6.90;63.40;;;;;;4946243;29;20647;-76
2021/04/18 06:25:42;;;;;;;10.77;5.67;;;6.90;63.70;;;;;;4938661;29;20170;-76
2021/04/18 06:28:08;;;;;;;14.03;5.83;;;6.90;63.80;;;;;;4922951;29;20185;-75
2021/04/18 06:30:43;;;;;;;8.80;5.40;;;6.90;64.00;;;;;;4945253;29;20474;-75
2021/04/18 06:33:20;;;;;;;13.17;6.60;;;6.90;64.00;;;;;;4940817;29;20641;-74
2021/04/18 06:35:52;;;;;;;13.37;6.70;;;6.90;64.40;;;;;;4940276;29;20451;-76
2021/04/18 06:38:18;;;;;;;18.50;6.30;;;6.90;64.30;;;;;;4941983;29;20452;-77
2021/04/18 06:40:43;;;;;;;12.23;6.70;;;6.90;64.40;;;;;;4965971;29;20441;-75
2021/04/18 06:43:12;;;;;;;9.97;4.90;;;7.00;64.90;;;;;;4969353;29;20177;-75
2021/04/18 06:45:52;;;;;;;11.83;5.90;;;7.00;65.20;;;;;;4972125;29;20177;-76
2021/04/18 06:48:27;;;;;;;9.83;6.17;;;7.20;65.00;;;;;;4937063;29;20436;-75
2021/04/18 06:51:02;;;;;;;16.33;7.40;;;7.30;64.70;;;;;;4949629;29;20483;-76
2021/04/18 06:53:33;;;;;;;14.00;6.07;;;7.50;64.70;;;;;;4961979;29;20407;-77
2021/04/18 06:56:05;;;;;;;13.40;6.10;;;7.80;63.70;;;;;;4923573;29;20476;-78
2021/04/18 06:58:31;;;;;;;10.17;5.83;;;8.10;62.30;;;;;;4947368;29;20450;-75
2021/04/18 07:00:57;;;;;;;16.97;7.20;;;8.40;60.80;;;;;;4957414;29;20493;-76
2021/04/18 07:03:25;;;;;;;10.67;6.17;;;8.50;61.10;;;;;;4941546;29;20427;-77
2021/04/18 07:06:01;;;;;;;18.17;7.70;;;8.50;60.20;;;;;;4936939;29;20920;-76
2021/04/18 07:08:32;;;;;;;13.33;7.10;;;8.70;60.60;;;;;;4934941;29;20425;-76
2021/04/18 07:11:15;;;;;;;18.00;6.47;;;8.80;59.70;;;;;;4952784;29;20594;-78
2021/04/18 07:13:46;;;;;;;16.40;7.37;;;8.90;59.30;;;;;;4963678;29;20416;-78
2021/04/18 07:16:32;;;;;;;17.40;7.40;;;9.00;59.50;;;;;;4938878;28;20520;-76
2021/04/18 07:18:58;;;;;;;14.30;6.63;;;9.10;58.10;;;;;;4941429;29;20451;-74
2021/04/18 07:21:24;;;;;;;13.10;7.17;;;9.00;58.30;;;;;;4958661;29;20432;-76
2021/04/18 07:24:04;;;;;;;12.97;7.07;;;8.80;58.60;;;;;;4968593;29;20161;-77
2021/04/18 07:26:29;;;;;;;16.43;8.83;;;8.70;59.40;;;;;;4937792;29;20456;-76
2021/04/18 07:29:17;;;;;;;17.80;9.03;;;8.50;59.80;;;;;;4955079;29;20421;-76
2021/04/18 07:31:43;;;;;;;18.93;9.00;;;8.30;60.30;;;;;;4933735;29;20198;-77
2021/04/18 07:34:11;;;;;;;12.90;7.50;;;8.30;61.00;;;;;;4949601;29;20504;-76
2021/04/18 07:36:41;;;;;;;17.20;8.27;;;8.30;61.50;;;;;;4937221;29;20436;-77
2021/04/18 07:39:09;;;;;;;15.03;8.60;;;8.40;61.20;;;;;;4956835;29;20407;-74
2021/04/18 07:41:43;;;;;;;12.90;8.00;;;8.50;61.50;;;;;;4953508;29;20858;-74
2021/04/18 07:44:15;;;;;;;24.47;9.17;;;8.80;60.60;;;;;;4952397;29;20420;-73
2021/04/18 07:47:00;;;;;;;18.90;9.77;;;9.00;59.50;;;;;;4940707;29;20839;-73
2021/04/18 07:49:26;;;;;;;16.10;8.10;;;9.40;59.10;;;;;;4940597;29;20421;-75
2021/04/18 07:51:51;;;;;;;15.00;8.63;;;9.80;58.30;;;;;;4948212;29;20451;-73
2021/04/18 07:54:18;;;;;;;13.70;9.23;;;10.70;57.00;;;;;;4942953;29;20495;-74
2021/04/18 07:56:49;;;;;;;18.33;8.20;;;11.80;53.40;;;;;;4925767;29;20165;-74
2021/04/18 07:59:16;;;;;;;14.87;7.97;;;12.80;52.50;;;;;;4944583;29;20413;-74
2021/04/18 08:01:43;;;;;;;14.57;8.30;;;14.20;49.40;;;;;;4944690;29;20439;-74
2021/04/18 08:04:10;;;;;;;14.67;8.37;;;15.60;47.10;;;;;;4930144;29;20420;-75
2021/04/18 08:06:39;;;;;;;15.00;7.70;;;16.10;43.50;;;;;;4942623;29;20520;-75
2021/04/18 08:09:16;;;;;;;14.87;8.30;;;16.70;43.60;;;;;;4943326;29;20428;-75
2021/04/18 08:12:02;;;;;;;13.70;8.80;;;18.00;42.20;;;;;;4950813;29;20447;-74
2021/04/18 08:14:28;;;;;;;16.50;8.47;;;19.40;38.80;;;;;;4943471;28;20592;-74
2021/04/18 08:17:14;;;;;;;16.00;9.30;;;19.70;37.70;;;;;;4952599;29;20520;-75
2021/04/18 08:20:01;;;;;;;13.73;9.10;;;18.60;37.40;;;;;;4954397;28;20471;-75
2021/04/18 08:22:56;;;;;;;15.00;8.90;;;17.10;38.80;;;;;;4948736;29;20520;-75
2021/04/18 08:25:22;;;;;;;19.80;9.10;;;15.70;41.40;;;;;;4940105;29;21016;-74
2021/04/18 08:28:07;;;;;;;18.50;10.30;;;14.90;43.80;;;;;;4945699;29;20428;-75
2021/04/18 08:31:02;;;;;;;19.43;11.43;;;14.60;44.90;;;;;;4941299;29;20308;-75
2021/04/18 08:33:40;;;;;;;17.73;9.23;;;14.20;45.50;;;;;;4904496;29;20432;-75
2021/04/18 08:36:20;;;;;;;21.50;9.93;;;13.90;46.90;;;;;;4950831;29;20449;-74
2021/04/18 08:39:06;;;;;;;17.00;10.10;;;14.00;46.80;;;;;;4952806;28;20421;-73
2021/04/18 08:41:42;;;;;;;14.60;9.73;;;14.10;45.90;;;;;;4938192;29;20445;-73
2021/04/18 08:44:39;;;;;;;15.63;9.80;;;14.00;46.60;;;;;;4941881;29;20471;-73
2021/04/18 08:47:17;;;;;;;20.70;11.10;;;14.10;47.40;;;;;;4957447;29;20558;-73
2021/04/18 08:50:05;;;;;;;20.07;10.47;;;14.20;46.30;;;;;;4954063;29;20980;-73
2021/04/18 08:52:33;;;;;;;21.17;10.40;;;14.00;46.40;;;;;;4954662;29;20921;-73
2021/04/18 08:55:06;;;;;;;21.37;10.77;;;13.90;47.20;;;;;;4957535;29;20424;-73
2021/04/18 08:57:32;;;;;;;16.03;8.80;;;13.80;46.70;;;;;;4956696;29;20495;-73
2021/04/18 09:00:07;;;;;;;19.40;10.30;;;13.70;46.30;;;;;;4960024;29;20468;-75
2021/04/18 09:02:33;;;;;;;17.93;11.20;;;13.60;46.80;;;;;;4951725;29;20530;-73
2021/04/18 09:05:01;;;;;;;20.90;11.57;;;13.60;47.10;;;;;;4961496;28;20420;-74
2021/04/18 09:07:32;;;;;;;20.63;11.63;;;13.70;47.40;;;;;;4960594;29;20242;-74
2021/04/18 09:10:00;;;;;;;20.93;11.00;;;13.50;47.40;;;;;;4957267;29;20523;-74
2021/04/18 09:12:26;;;;;;;16.27;10.00;;;13.40;46.90;;;;;;4944101;29;20409;-73
2021/04/18 09:14:52;;;;;;;14.60;8.77;;;13.10;47.30;;;;;;4955570;29;20794;-72
2021/04/18 09:17:23;;;;;;;21.57;12.30;;;12.80;47.70;;;;;;4955513;29;20495;-73
2021/04/18 09:19:54;;;;;;;16.57;9.80;;;12.60;48.30;;;;;;4958686;29;20181;-72
2021/04/18 09:22:26;;;;;;;16.57;9.90;;;12.50;49.00;;;;;;4942799;29;20444;-73
2021/04/18 09:24:52;;;;;;;16.87;9.80;;;12.50;49.40;;;;;;4942978;29;20412;-72
2021/04/18 09:27:30;;;;;;;22.90;11.73;;;12.70;49.50;;;;;;4940727;29;20491;-73
2021/04/18 09:30:07;;;;;;;20.27;10.13;;;12.80;49.70;;;;;;4957286;29;20869;-73
2021/04/18 09:32:36;;;;;;;18.10;10.10;;;12.90;49.30;;;;;;4941819;29;20440;-73
2021/04/18 09:35:03;;;;;;;16.43;10.03;;;12.80;48.30;;;;;;4956322;29;20476;-73
2021/04/18 09:37:37;;;;;;;16.87;10.00;;;12.70;48.90;;;;;;4949484;29;20417;-73
2021/04/18 09:40:05;;;;;;;19.17;10.47;;;12.60;49.20;;;;;;4959664;29;20452;-75
2021/04/18 09:42:38;;;;;;;20.80;11.67;;;12.40;49.50;;;;;;4968401;29;20431;-74
2021/04/18 09:45:10;;;;;;;20.30;10.73;;;12.20;50.20;;;;;;4968692;29;20551;-74
2021/04/18 09:47:36;;;;;;;23.50;12.73;;;12.00;50.90;;;;;;4960268;29;20428;-75
2021/04/18 09:50:05;;;;;;;17.80;11.10;;;12.00;51.50;;;;;;4949845;29;20472;-76
2021/04/18 09:52:33;;;;;;;18.83;11.57;;;12.00;51.60;;;;;;4928480;29;20404;-73
2021/04/18 09:55:15;;;;;;;23.67;13.70;;;12.00;51.40;;;;;;4964182;29;20428;-73
2021/04/18 09:57:51;;;;;;;24.27;12.73;;;11.80;51.70;;;;;;4956069;29;20516;-72
2021/04/18 10:00:20;;;;;;;24.67;11.83;;;11.60;52.40;;;;;;4956209;29;20883;-72
2021/04/18 10:03:11;;;;;;;20.50;12.10;;;11.60;52.70;;;;;;4971032;28;20433;-71
2021/04/18 10:05:42;;;;;;;24.10;10.93;;;11.50;53.00;;;;;;4938551;29;20413;-72
2021/04/18 10:08:25;;;;;;;20.33;10.90;;;11.50;52.90;;;;;;4938424;29;20610;-72
2021/04/18 10:11:16;;;;;;;21.10;11.67;;;11.40;52.70;;;;;;4957216;28;20469;-71
2021/04/18 10:13:55;;;;;;;22.60;12.60;;;11.30;53.10;;;;;;4951434;29;20429;-72
2021/04/18 10:16:31;;;;;;;18.50;11.60;;;11.30;53.30;;;;;;4953822;29;20439;-72
2021/04/18 10:19:03;;;;;;;20.10;11.07;;;11.30;53.80;;;;;;4939804;29;20420;-72
2021/04/18 10:21:29;;;;;;;27.63;11.50;;;11.30;53.90;;;;;;4951967;29;20805;-73
2021/04/18 10:23:55;;;;;;;18.53;9.80;;;11.30;54.40;;;;;;4948701;29;20770;-71
2021/04/18 10:26:22;;;;;;;22.27;9.77;;;11.20;54.70;;;;;;4957987;28;20527;-73
2021/04/18 10:28:50;;;;;;;17.97;9.97;;;11.20;55.10;;;;;;4949286;29;20626;-73
2021/04/18 10:31:18;;;;;;;21.00;10.23;;;11.30;55.50;;;;;;4930500;29;20468;-73
2021/04/18 10:33:45;;;;;;;15.90;9.03;;;11.30;55.60;;;;;;4947896;29;20425;-73
2021/04/18 10:36:11;;;;;;;20.33;9.07;;;11.30;55.70;;;;;;4937799;29;20414;-74
2021/04/18 10:38:39;;;;;;;17.43;9.77;;;11.40;55.90;;;;;;4953633;29;20420;-74
2021/04/18 10:41:05;;;;;;;21.67;10.67;;;11.40;56.30;;;;;;4957391;29;20440;-72
2021/04/18 10:43:32;;;;;;;13.80;8.67;;;11.60;56.10;;;;;;4940769;29;20425;-72
2021/04/18 10:45:58;;;;;;;12.10;8.13;;;11.60;55.80;;;;;;4958536;29;20420;-73
2021/04/18 10:48:23;;;;;;;12.30;8.50;;;11.70;56.00;;;;;;4940382;29;20421;-72
2021/04/18 10:50:49;;;;;;;20.47;8.73;;;11.90;55.60;;;;;;4954890;29;20993;-73
2021/04/18 10:53:15;;;;;;;14.73;9.47;;;11.90;55.00;;;;;;4940826;29;20183;-72
2021/04/18 10:55:41;;;;;;;21.40;12.07;;;12.00;55.50;;;;;;4952799;29;20249;-73
2021/04/18 10:58:07;;;;;;;20.07;11.20;;;12.00;54.30;;;;;;4906923;29;20221;-72
2021/04/18 11:00:32;;;;;;;15.23;9.87;;;12.00;54.80;;;;;;4954026;28;20456;-73
2021/04/18 11:02:58;;;;;;;23.23;11.23;;;12.20;54.20;;;;;;4948138;29;20216;-72
2021/04/18 11:05:24;;;;;;;25.13;12.77;;;12.50;54.00;;;;;;4945890;29;20232;-72
2021/04/18 11:07:49;;;;;;;23.90;11.70;;;12.70;52.40;;;;;;4950147;29;20257;-74
2021/04/18 11:10:16;;;;;;;17.53;11.87;;;12.90;52.30;;;;;;4937427;29;20205;-72
2021/04/18 11:12:42;;;;;;;20.97;12.40;;;13.20;52.00;;;;;;4954409;29;20196;-73
2021/04/18 11:15:10;;;;;;;23.47;11.67;;;13.40;51.00;;;;;;4954503;29;20500;-72
2021/04/18 11:17:37;;;;;;;21.13;11.33;;;13.40;50.50;;;;;;4920370;29;20790;-73
2021/04/18 11:20:06;;;;;;;29.80;12.40;;;13.40;49.50;;;;;;4953325;29;20805;-74
2021/04/18 11:22:31;;;;;;;22.00;11.00;;;13.40;48.30;;;;;;4954129;29;20432;-72
2021/04/18 11:24:59;;;;;;;16.40;9.47;;;13.20;48.80;;;;;;4954554;29;20420;-73
2021/04/18 11:27:28;;;;;;;16.53;10.03;;;13.10;48.30;;;;;;4954125;29;20260;-73
2021/04/18 11:29:54;;;;;;;17.50;9.80;;;13.00;48.20;;;;;;4954242;29;20467;-72
2021/04/18 11:32:20;;;;;;;20.77;10.57;;;13.10;48.80;;;;;;4954314;29;20460;-73
2021/04/18 11:34:46;;;;;;;16.17;8.00;;;13.00;47.90;;;;;;4936822;29;20853;-73
2021/04/18 11:37:12;;;;;;;17.63;9.30;;;12.90;48.00;;;;;;4955985;29;20626;-75
2021/04/18 11:39:38;;;;;;;14.67;8.90;;;12.90;48.20;;;;;;4956125;29;20424;-74
2021/04/18 11:42:07;;;;;;;16.80;9.33;;;12.90;48.30;;;;;;4923140;29;20520;-73
2021/04/18 11:44:33;;;;;;;22.27;11.00;;;12.80;48.10;;;;;;4954652;29;20288;-74
2021/04/18 11:46:58;;;;;;;17.03;10.70;;;12.70;48.60;;;;;;4954456;29;20464;-73
2021/04/18 11:49:24;;;;;;;13.80;9.73;;;12.60;49.00;;;;;;4954067;29;20172;-73
2021/04/18 11:51:50;;;;;;;15.37;9.50;;;12.50;49.60;;;;;;4953908;29;20235;-73
2021/04/18 11:54:15;;;;;;;17.87;9.13;;;12.50;49.60;;;;;;4954231;29;20169;-73
2021/04/18 11:56:41;;;;;;;17.33;9.43;;;12.50;49.60;;;;;;4936980;29;20702;-73
2021/04/18 11:59:07;;;;;;;16.73;10.00;;;12.40;49.30;;;;;;4957963;29;20176;-73
2021/04/18 12:01:34;;;;;;;18.40;9.83;;;12.30;50.30;;;;;;4956516;29;20444;-74
2021/04/18 12:04:00;;;;;;;15.70;9.40;;;12.40;50.30;;;;;;4956321;29;20542;-74
2021/04/18 12:06:25;;;;;;;15.40;9.30;;;12.40;50.10;;;;;;4954138;29;20448;-73
2021/04/18 12:08:51;;;;;;;16.57;9.90;;;12.50;50.00;;;;;;4937639;29;20428;-74
2021/04/18 12:11:17;;;;;;;16.77;9.37;;;12.50;49.60;;;;;;4953199;28;20205;-73
2021/04/18 12:13:46;;;;;;;20.63;10.90;;;12.50;49.50;;;;;;4953536;29;20716;-73
2021/04/18 12:16:11;;;;;;;17.90;8.97;;;12.60;49.50;;;;;;4968296;28;20713;-73
2021/04/18 12:18:37;;;;;;;14.33;9.70;;;12.60;49.30;;;;;;4952713;29;20471;-73
2021/04/18 12:21:03;;;;;;;18.93;9.60;;;12.70;48.90;;;;;;4936315;29;20224;-74
2021/04/18 12:23:28;;;;;;;19.50;9.60;;;12.70;48.70;;;;;;4956359;29;20169;-74
2021/04/18 12:25:54;;;;;;;17.63;9.70;;;12.80;48.80;;;;;;4957097;29;20213;-73
2021/04/18 12:28:20;;;;;;;17.33;10.17;;;12.80;48.30;;;;;;4956652;29;20188;-74
2021/04/18 12:30:46;;;;;;;24.07;11.97;;;12.90;48.20;;;;;;4956200;29;20630;-73
2021/04/18 12:33:12;;;;;;;14.93;9.47;;;12.90;48.50;;;;;;4954167;29;20516;-73
2021/04/18 12:35:37;;;;;;;16.43;9.90;;;13.00;48.60;;;;;;4956501;28;20168;-73
2021/04/18 12:38:03;;;;;;;16.13;11.00;;;13.10;48.10;;;;;;4956515;29;20648;-74
2021/04/18 12:40:29;;;;;;;17.90;9.90;;;13.20;48.20;;;;;;4962039;29;20275;-73
2021/04/18 12:42:54;;;;;;;16.73;10.30;;;13.30;47.70;;;;;;4955096;29;20631;-74
2021/04/18 12:45:20;;;;;;;15.80;9.77;;;13.50;47.30;;;;;;4958379;29;20173;-73
2021/04/18 12:47:46;;;;;;;18.80;10.67;;;13.70;46.80;;;;;;4956838;29;20252;-74
2021/04/18 12:50:13;;;;;;;18.87;10.10;;;13.70;46.60;;;;;;4953244;29;20503;-75
2021/04/18 12:52:39;;;;;;;19.20;10.77;;;13.90;46.70;;;;;;4953050;29;20169;-74
2021/04/18 12:55:06;;;;;;;17.50;11.17;;;14.00;46.30;;;;;;4952849;29;20938;-74
2021/04/18 12:57:34;;;;;;;16.30;10.27;;;14.10;46.20;;;;;;4953370;29;20481;-73
2021/04/18 13:00:00;;;;;;;17.20;10.63;;;14.20;45.90;;;;;;4953132;29;20437;-74